createdAt,value
2018-03-03T00:02:02.900Z,66.79
2018-03-03T00:04:30.673Z,66.79
2018-03-03T00:06:58.434Z,66.63
2018-03-03T00:09:26.148Z,66.68
2018-03-03T00:11:53.860Z,66.57
2018-03-03T00:14:21.626Z,66.62
2018-03-03T00:16:49.320Z,66.63
2018-03-03T00:19:17.054Z,66.47
2018-03-03T00:21:44.819Z,66.54
2018-03-03T00:24:12.541Z,66.50
2018-03-03T00:26:40.241Z,66.58
2018-03-03T00:29:08.017Z,66.62
2018-03-03T00:31:35.775Z,66.43
2018-03-03T00:34:03.554Z,66.48
2018-03-03T00:36:31.261Z,66.52
2018-03-03T00:38:58.976Z,66.32
2018-03-03T00:41:26.748Z,66.32
2018-03-03T00:43:55.176Z,66.33
2018-03-03T00:46:22.984Z,66.20
2018-03-03T00:48:51.368Z,66.25
2018-03-03T00:51:19.087Z,66.35
2018-03-03T00:53:46.787Z,66.24
2018-03-03T00:56:14.566Z,66.28
2018-03-03T00:58:42.323Z,66.46
2018-03-03T01:01:10.053Z,66.49
2018-03-03T01:03:37.856Z,66.46
2018-03-03T01:06:05.634Z,66.49
2018-03-03T01:08:33.383Z,66.47
2018-03-03T01:11:01.155Z,66.55
2018-03-03T01:13:28.857Z,66.64
2018-03-03T01:15:56.684Z,66.62
2018-03-03T01:18:24.447Z,66.75
2018-03-03T01:20:52.136Z,66.66
2018-03-03T01:23:19.872Z,66.91
2018-03-03T01:25:47.641Z,66.91
2018-03-03T01:28:15.416Z,66.75
2018-03-03T01:30:43.100Z,66.81
2018-03-03T01:33:10.846Z,66.90
2018-03-03T01:35:38.539Z,67.00
2018-03-03T01:38:06.253Z,66.96
2018-03-03T01:40:34.032Z,67.01
2018-03-03T01:43:01.752Z,67.02
2018-03-03T01:45:29.451Z,67.09
2018-03-03T01:47:57.167Z,67.01
2018-03-03T01:50:24.864Z,67.01
2018-03-03T01:52:52.656Z,66.97
2018-03-03T01:55:20.367Z,66.95
2018-03-03T01:57:48.059Z,67.05
2018-03-03T02:00:15.776Z,67.10
2018-03-03T02:02:43.467Z,67.10
2018-03-03T02:05:11.281Z,67.22
2018-03-03T02:07:39.043Z,67.22
2018-03-03T02:10:06.763Z,67.37
2018-03-03T02:12:34.551Z,67.48
2018-03-03T02:15:02.276Z,67.49
2018-03-03T02:17:29.981Z,67.41
2018-03-03T02:19:57.696Z,67.50
2018-03-03T02:22:25.433Z,67.52
2018-03-03T02:24:53.195Z,67.61
2018-03-03T02:27:20.956Z,67.61
2018-03-03T02:29:48.680Z,67.79
2018-03-03T02:32:16.388Z,67.77
2018-03-03T02:34:44.090Z,67.77
2018-03-03T02:37:11.915Z,67.97
2018-03-03T02:39:39.685Z,67.89
2018-03-03T02:42:07.459Z,67.80
2018-03-03T02:44:35.221Z,67.79
2018-03-03T02:47:02.987Z,67.68
2018-03-03T02:49:30.744Z,67.74
2018-03-03T02:51:58.476Z,67.84
2018-03-03T02:54:26.284Z,67.75
2018-03-03T02:56:54.024Z,67.86
2018-03-03T02:59:21.720Z,67.92
2018-03-03T03:01:49.426Z,67.94
2018-03-03T03:04:17.246Z,67.99
2018-03-03T03:06:44.956Z,68.05
2018-03-03T03:09:12.677Z,68.16
2018-03-03T03:11:40.368Z,68.16
2018-03-03T03:14:08.196Z,68.12
2018-03-03T03:16:35.908Z,68.03
2018-03-03T03:19:03.731Z,68.03
2018-03-03T03:21:31.430Z,68.23
2018-03-03T03:23:59.156Z,68.20
2018-03-03T03:26:26.924Z,68.20
2018-03-03T03:28:54.648Z,68.32
2018-03-03T03:31:22.459Z,68.33
2018-03-03T03:33:50.190Z,68.38
2018-03-03T03:36:17.884Z,68.46
2018-03-03T03:38:45.593Z,68.62
2018-03-03T03:41:13.407Z,68.64
2018-03-03T03:43:41.180Z,68.66
2018-03-03T03:46:08.905Z,68.55
2018-03-03T03:48:36.609Z,68.53
2018-03-03T03:51:04.341Z,68.50
2018-03-03T03:53:32.045Z,68.54
2018-03-03T03:55:59.764Z,68.61
2018-03-03T03:58:27.462Z,68.60
2018-03-03T04:00:55.233Z,68.84
2018-03-03T04:03:22.933Z,68.92
2018-03-03T04:05:50.665Z,69.03
2018-03-03T04:08:18.424Z,69.09
2018-03-03T04:10:46.126Z,69.26
2018-03-03T04:13:13.956Z,69.34
2018-03-03T04:15:41.721Z,69.37
2018-03-03T04:18:09.452Z,69.35
2018-03-03T04:20:37.148Z,69.43
2018-03-03T04:23:04.918Z,69.49
2018-03-03T04:25:32.616Z,69.48
2018-03-03T04:28:00.349Z,69.45
2018-03-03T04:30:28.049Z,69.52
2018-03-03T04:32:55.769Z,69.37
2018-03-03T04:35:23.494Z,69.39
2018-03-03T04:37:51.190Z,69.42
2018-03-03T04:40:18.964Z,69.61
2018-03-03T04:42:46.728Z,69.77
2018-03-03T04:45:14.453Z,69.80
2018-03-03T04:47:42.154Z,69.73
2018-03-03T04:50:09.876Z,69.82
2018-03-03T04:52:37.586Z,70.00
2018-03-03T04:55:05.308Z,70.10
2018-03-03T04:57:33.014Z,70.20
2018-03-03T05:03:18.117Z,70.17
2018-03-03T05:08:52.100Z,70.29
2018-03-03T05:11:19.822Z,70.28
2018-03-03T05:13:48.836Z,70.39
2018-03-03T05:16:21.104Z,70.39
2018-03-03T05:18:54.516Z,70.85
2018-03-03T05:24:41.365Z,71.01
2018-03-03T05:30:29.573Z,70.72
2018-03-03T05:33:02.892Z,70.51
2018-03-03T05:35:36.092Z,70.45
2018-03-03T05:38:04.372Z,70.41
2018-03-03T05:40:37.725Z,70.47
2018-03-03T05:43:11.041Z,70.60
2018-03-03T05:45:44.204Z,70.73
2018-03-03T05:48:12.696Z,70.49
2018-03-03T05:50:43.834Z,70.30
2018-03-03T05:53:17.282Z,70.22
2018-03-03T05:55:50.444Z,70.00
2018-03-03T05:58:23.763Z,70.04
2018-03-03T06:00:57.204Z,70.12
2018-03-03T06:03:25.876Z,70.19
2018-03-03T06:05:59.164Z,70.21
2018-03-03T06:08:29.913Z,70.41
2018-03-03T06:10:57.944Z,70.46
2018-03-03T06:13:25.678Z,70.41
2018-03-03T06:15:53.390Z,70.46
2018-03-03T06:18:21.224Z,70.38
2018-03-03T06:20:48.984Z,70.36
2018-03-03T06:23:16.748Z,70.36
2018-03-03T06:25:44.496Z,70.36
2018-03-03T06:28:12.197Z,70.27
2018-03-03T06:30:39.912Z,70.35
2018-03-03T06:33:07.618Z,70.37
2018-03-03T06:35:35.339Z,70.31
2018-03-03T06:38:03.136Z,70.32
2018-03-03T06:40:30.856Z,70.26
2018-03-03T06:42:58.568Z,70.26
2018-03-03T06:45:26.288Z,70.17
2018-03-03T06:47:54.105Z,70.19
2018-03-03T06:50:21.869Z,69.99
2018-03-03T06:52:49.632Z,70.01
2018-03-03T06:55:17.394Z,70.02
2018-03-03T06:57:45.091Z,70.00
2018-03-03T07:00:12.824Z,69.97
2018-03-03T07:02:40.548Z,70.08
2018-03-03T07:05:08.357Z,70.00
2018-03-03T07:07:36.125Z,70.01
2018-03-03T07:10:03.816Z,70.64
2018-03-03T07:12:31.540Z,72.34
2018-03-03T07:15:00.041Z,73.38
2018-03-03T07:17:27.758Z,70.95
2018-03-03T07:19:55.564Z,70.14
2018-03-03T07:22:23.381Z,69.74
2018-03-03T07:24:51.052Z,69.63
2018-03-03T07:27:18.778Z,69.25
2018-03-03T07:29:46.516Z,68.97
2018-03-03T07:32:14.292Z,68.58
2018-03-03T07:34:42.014Z,68.32
2018-03-03T07:37:09.737Z,68.34
2018-03-03T07:39:37.471Z,68.42
2018-03-03T07:42:05.164Z,68.26
2018-03-03T07:44:32.883Z,68.02
2018-03-03T07:47:00.637Z,68.09
2018-03-03T07:49:28.361Z,67.85
2018-03-03T07:51:56.066Z,67.52
2018-03-03T07:54:23.864Z,67.22
2018-03-03T07:56:57.577Z,67.09
2018-03-03T07:59:25.342Z,66.76
2018-03-03T08:01:53.036Z,66.61
2018-03-03T08:04:20.748Z,66.17
2018-03-03T08:06:48.436Z,65.76
2018-03-03T08:09:16.152Z,65.53
2018-03-03T08:11:43.847Z,65.52
2018-03-03T08:14:11.576Z,64.88
2018-03-03T08:16:39.277Z,64.95
2018-03-03T08:19:06.978Z,64.83
2018-03-03T08:21:34.721Z,64.34
2018-03-03T08:24:02.408Z,64.44
2018-03-03T08:26:30.120Z,64.05
2018-03-03T08:28:57.907Z,63.75
2018-03-03T08:31:25.636Z,63.61
2018-03-03T08:33:53.333Z,62.96
2018-03-03T08:36:21.101Z,62.59
2018-03-03T08:38:48.868Z,62.13
2018-03-03T08:41:16.584Z,62.41
2018-03-03T08:43:44.301Z,62.06
2018-03-03T08:46:12.021Z,61.55
2018-03-03T08:48:39.824Z,60.92
2018-03-03T08:51:07.544Z,60.70
2018-03-03T08:53:35.236Z,61.00
2018-03-03T08:56:03.025Z,61.12
2018-03-03T08:58:30.718Z,61.02
2018-03-03T09:00:58.441Z,60.25
2018-03-03T09:03:26.218Z,59.99
2018-03-03T09:05:53.976Z,59.32
2018-03-03T09:08:21.675Z,58.92
2018-03-03T09:10:49.420Z,58.96
2018-03-03T09:13:17.166Z,58.57
2018-03-03T09:15:44.885Z,58.68
2018-03-03T09:18:12.822Z,57.89
2018-03-03T09:20:40.525Z,57.18
2018-03-03T09:23:08.250Z,56.98
2018-03-03T09:25:36.000Z,56.82
2018-03-03T09:28:03.724Z,57.06
2018-03-03T09:30:31.420Z,56.96
2018-03-03T09:32:59.193Z,56.54
2018-03-03T09:35:26.958Z,56.53
2018-03-03T09:37:54.728Z,56.04
2018-03-03T09:40:22.425Z,56.42
2018-03-03T09:42:50.145Z,56.64
2018-03-03T09:45:17.845Z,56.12
2018-03-03T09:47:45.566Z,56.13
2018-03-03T09:50:13.265Z,56.00
2018-03-03T09:52:40.998Z,55.64
2018-03-03T09:55:08.779Z,56.07
2018-03-03T09:57:36.470Z,56.24
2018-03-03T10:00:04.184Z,55.83
2018-03-03T10:02:31.875Z,55.23
2018-03-03T10:04:59.589Z,54.69
2018-03-03T10:07:27.296Z,54.36
2018-03-03T10:09:55.065Z,54.26
2018-03-03T10:12:22.834Z,55.05
2018-03-03T10:14:50.548Z,54.77
2018-03-03T10:17:18.243Z,54.48
2018-03-03T10:19:46.031Z,54.26
2018-03-03T10:22:13.733Z,53.85
2018-03-03T10:24:41.454Z,53.80
2018-03-03T10:27:09.162Z,53.78
2018-03-03T10:29:36.969Z,53.36
2018-03-03T10:32:04.715Z,53.58
2018-03-03T10:34:32.389Z,53.39
2018-03-03T10:37:00.172Z,53.18
2018-03-03T10:39:27.874Z,53.26
2018-03-03T10:41:55.591Z,53.37
2018-03-03T10:44:23.364Z,52.76
2018-03-03T10:46:51.135Z,53.26
2018-03-03T10:49:18.831Z,53.05
2018-03-03T10:51:46.662Z,53.16
2018-03-03T10:54:14.425Z,52.59
2018-03-03T10:56:42.197Z,53.24
2018-03-03T10:59:09.888Z,53.16
2018-03-03T11:01:37.600Z,52.44
2018-03-03T11:04:05.388Z,51.84
2018-03-03T11:06:33.157Z,52.17
2018-03-03T11:09:00.917Z,51.71
2018-03-03T11:11:28.632Z,51.80
2018-03-03T11:13:56.352Z,52.04
2018-03-03T11:16:24.111Z,51.53
2018-03-03T11:18:51.872Z,51.75
2018-03-03T11:21:19.561Z,50.64
2018-03-03T11:23:47.281Z,50.60
2018-03-03T11:26:15.069Z,50.61
2018-03-03T11:28:42.788Z,50.50
2018-03-03T11:31:10.498Z,50.87
2018-03-03T11:33:38.272Z,51.02
2018-03-03T11:36:05.965Z,50.62
2018-03-03T11:38:33.801Z,50.69
2018-03-03T11:41:01.492Z,50.27
2018-03-03T11:43:29.220Z,49.69
2018-03-03T11:45:56.911Z,49.88
2018-03-03T11:48:24.635Z,49.58
2018-03-03T11:50:52.413Z,49.42
2018-03-03T11:53:20.113Z,50.01
2018-03-03T11:55:47.828Z,49.68
2018-03-03T11:58:15.645Z,49.33
2018-03-03T12:00:43.361Z,49.05
2018-03-03T12:03:11.048Z,48.88
2018-03-03T12:05:38.792Z,49.55
2018-03-03T12:08:06.501Z,48.96
2018-03-03T12:10:34.226Z,48.83
2018-03-03T12:13:01.935Z,49.24
2018-03-03T12:15:29.658Z,49.38
2018-03-03T12:17:57.424Z,49.08
2018-03-03T12:20:25.144Z,49.18
2018-03-03T12:22:52.841Z,49.43
2018-03-03T12:25:20.624Z,48.98
2018-03-03T12:27:48.644Z,48.85
2018-03-03T12:30:16.457Z,48.27
2018-03-03T12:32:44.239Z,48.51
2018-03-03T12:35:11.933Z,48.88
2018-03-03T12:37:39.653Z,48.80
2018-03-03T12:40:07.412Z,48.78
2018-03-03T12:42:35.175Z,49.01
2018-03-03T12:45:02.868Z,48.27
2018-03-03T12:47:30.616Z,48.68
2018-03-03T12:49:58.317Z,48.86
2018-03-03T12:52:26.032Z,48.55
2018-03-03T12:54:53.724Z,48.86
2018-03-03T12:57:21.464Z,49.00
2018-03-03T12:59:49.228Z,48.79
2018-03-03T13:02:16.950Z,48.54
2018-03-03T13:04:44.657Z,49.04
2018-03-03T13:07:12.392Z,48.85
2018-03-03T13:09:40.084Z,49.10
2018-03-03T13:12:07.857Z,49.53
2018-03-03T13:14:35.616Z,49.04
2018-03-03T13:17:03.313Z,49.23
2018-03-03T13:19:31.044Z,49.28
2018-03-03T13:21:58.817Z,49.20
2018-03-03T13:24:26.580Z,49.17
2018-03-03T13:26:54.341Z,49.29
2018-03-03T13:29:22.056Z,49.37
2018-03-03T13:31:49.748Z,49.07
2018-03-03T13:34:17.533Z,49.01
2018-03-03T13:36:45.301Z,48.50
2018-03-03T13:39:13.020Z,48.91
2018-03-03T13:41:40.729Z,48.94
2018-03-03T13:44:08.445Z,48.96
2018-03-03T13:46:36.161Z,49.20
2018-03-03T13:49:03.920Z,48.93
2018-03-03T13:51:31.684Z,49.39
2018-03-03T13:53:59.405Z,49.68
2018-03-03T13:56:27.120Z,49.54
2018-03-03T13:58:54.880Z,49.53
2018-03-03T14:01:22.605Z,49.51
2018-03-03T14:03:50.412Z,49.86
2018-03-03T14:06:18.181Z,49.26
2018-03-03T14:08:45.877Z,49.58
2018-03-03T14:11:13.693Z,49.80
2018-03-03T14:13:41.410Z,49.92
2018-03-03T14:16:09.205Z,49.63
2018-03-03T14:18:36.910Z,49.66
2018-03-03T14:21:04.638Z,49.45
2018-03-03T14:23:32.338Z,49.73
2018-03-03T14:26:00.102Z,50.01
2018-03-03T14:28:27.860Z,49.62
2018-03-03T14:30:55.618Z,50.00
2018-03-03T14:33:23.395Z,49.72
2018-03-03T14:35:51.095Z,49.64
2018-03-03T14:38:18.924Z,49.56
2018-03-03T14:40:46.616Z,49.81
2018-03-03T14:43:14.345Z,49.75
2018-03-03T14:45:42.124Z,49.66
2018-03-03T14:48:09.849Z,49.69
2018-03-03T14:50:37.569Z,49.96
2018-03-03T14:53:05.316Z,50.04
2018-03-03T14:55:33.082Z,49.81
2018-03-03T14:58:00.840Z,49.85
2018-03-03T15:00:28.533Z,49.93
2018-03-03T15:02:56.364Z,49.71
2018-03-03T15:05:24.140Z,50.18
2018-03-03T15:07:51.905Z,50.30
2018-03-03T15:10:19.673Z,50.44
2018-03-03T15:12:47.432Z,50.27
2018-03-03T15:15:15.154Z,50.38
2018-03-03T15:17:42.843Z,50.68
2018-03-03T15:20:10.564Z,50.87
2018-03-03T15:22:38.294Z,50.49
2018-03-03T15:25:06.008Z,50.58
2018-03-03T15:27:33.720Z,50.54
2018-03-03T15:30:01.485Z,50.52
2018-03-03T15:32:29.204Z,50.84
2018-03-03T15:34:57.021Z,50.82
2018-03-03T15:37:24.713Z,50.98
2018-03-03T15:39:52.448Z,50.96
2018-03-03T15:42:20.165Z,51.19
2018-03-03T15:44:47.861Z,51.38
2018-03-03T15:47:15.651Z,51.44
2018-03-03T15:49:43.410Z,51.56
2018-03-03T15:52:11.120Z,51.63
2018-03-03T15:54:38.820Z,51.74
2018-03-03T15:57:06.545Z,51.88
2018-03-03T15:59:34.247Z,52.13
2018-03-03T16:02:01.970Z,52.35
2018-03-03T16:04:29.668Z,52.38
2018-03-03T16:06:57.476Z,52.53
2018-03-03T16:09:25.229Z,52.68
2018-03-03T16:11:52.955Z,53.14
2018-03-03T16:14:20.652Z,53.15
2018-03-03T16:16:48.369Z,53.28
2018-03-03T16:19:16.067Z,53.43
2018-03-03T16:21:43.800Z,53.71
2018-03-03T16:24:11.495Z,53.75
2018-03-03T16:26:39.245Z,53.93
2018-03-03T16:29:07.030Z,54.09
2018-03-03T16:31:34.809Z,54.42
2018-03-03T16:34:02.510Z,54.49
2018-03-03T16:36:30.204Z,54.50
2018-03-03T16:38:58.017Z,54.67
2018-03-03T16:41:26.376Z,54.65
2018-03-03T16:43:54.100Z,55.01
2018-03-03T16:46:21.814Z,54.97
2018-03-03T16:48:49.577Z,55.11
2018-03-03T16:51:17.269Z,55.15
2018-03-03T16:53:44.991Z,55.33
2018-03-03T16:56:12.680Z,55.51
2018-03-03T16:58:40.396Z,55.60
2018-03-03T17:01:08.097Z,55.93
2018-03-03T17:03:35.856Z,56.25
2018-03-03T17:06:03.625Z,56.24
2018-03-03T17:08:31.388Z,56.15
2018-03-03T17:10:59.153Z,56.36
2018-03-03T17:13:26.872Z,56.44
2018-03-03T17:15:54.569Z,56.55
2018-03-03T17:18:22.289Z,56.53
2018-03-03T17:20:49.986Z,56.72
2018-03-03T17:23:17.709Z,56.71
2018-03-03T17:25:45.410Z,56.75
2018-03-03T17:28:13.129Z,56.87
2018-03-03T17:30:40.820Z,56.92
2018-03-03T17:33:08.612Z,57.08
2018-03-03T17:35:36.494Z,57.13
2018-03-03T17:38:04.889Z,57.19
2018-03-03T17:40:32.653Z,57.21
2018-03-03T17:43:00.422Z,57.42
2018-03-03T17:45:28.186Z,57.44
2018-03-03T17:47:55.944Z,57.61
2018-03-03T17:50:23.708Z,57.68
2018-03-03T17:52:51.405Z,57.80
2018-03-03T17:55:19.140Z,57.84
2018-03-03T17:57:46.833Z,58.02
2018-03-03T18:00:14.569Z,58.47
2018-03-03T18:02:42.584Z,58.44
2018-03-03T18:05:10.297Z,58.39
2018-03-03T18:07:38.009Z,58.54
2018-03-03T18:10:05.724Z,58.52
2018-03-03T18:12:36.367Z,58.61
2018-03-03T18:15:04.084Z,58.76
2018-03-03T18:17:31.775Z,58.82
2018-03-03T18:19:59.551Z,58.95
2018-03-03T18:22:27.329Z,59.23
2018-03-03T18:24:55.093Z,59.19
2018-03-03T18:27:22.784Z,59.19
2018-03-03T18:29:50.520Z,59.30
2018-03-03T18:32:18.216Z,59.30
2018-03-03T18:34:45.913Z,59.46
2018-03-03T18:37:13.632Z,59.55
2018-03-03T18:39:41.328Z,59.64
2018-03-03T18:42:09.045Z,59.84
2018-03-03T18:44:36.807Z,59.94
2018-03-03T18:47:04.573Z,60.17
2018-03-03T18:49:32.265Z,60.31
2018-03-03T18:51:59.982Z,60.53
2018-03-03T18:54:27.673Z,60.79
2018-03-03T18:56:55.396Z,60.75
2018-03-03T18:59:23.094Z,60.82
2018-03-03T19:01:50.860Z,60.75
2018-03-03T19:04:18.573Z,61.04
2018-03-03T19:06:46.288Z,61.09
2018-03-03T19:09:14.055Z,61.32
2018-03-03T19:11:41.748Z,61.35
2018-03-03T19:14:09.480Z,61.44
2018-03-03T19:16:37.174Z,61.53
2018-03-03T19:19:04.904Z,61.74
2018-03-03T19:21:32.677Z,61.74
2018-03-03T19:24:00.437Z,61.79
2018-03-03T19:26:28.138Z,61.83
2018-03-03T19:28:55.862Z,62.06
2018-03-03T19:31:23.561Z,62.01
2018-03-03T19:33:51.401Z,62.24
2018-03-03T19:36:19.169Z,62.32
2018-03-03T19:38:46.901Z,62.26
2018-03-03T19:41:14.597Z,62.41
2018-03-03T19:43:42.357Z,62.50
2018-03-03T19:46:10.130Z,62.61
2018-03-03T19:48:37.889Z,62.54
2018-03-03T19:51:05.621Z,62.75
2018-03-03T19:53:33.425Z,62.82
2018-03-03T19:56:01.186Z,63.06
2018-03-03T19:58:28.886Z,63.32
2018-03-03T20:00:56.605Z,63.30
2018-03-03T20:03:24.381Z,63.32
2018-03-03T20:05:52.145Z,63.46
2018-03-03T20:08:19.844Z,63.56
2018-03-03T20:10:47.577Z,63.65
2018-03-03T20:13:15.337Z,63.73
2018-03-03T20:15:43.101Z,63.70
2018-03-03T20:18:10.797Z,63.90
2018-03-03T20:20:38.553Z,63.87
2018-03-03T20:23:06.301Z,63.81
2018-03-03T20:25:34.061Z,63.93
2018-03-03T20:28:01.781Z,63.95
2018-03-03T20:30:29.492Z,64.10
2018-03-03T20:32:57.208Z,64.17
2018-03-03T20:35:24.897Z,64.40
2018-03-03T20:37:52.689Z,64.48
2018-03-03T20:40:20.385Z,64.51
2018-03-03T20:42:48.218Z,64.45
2018-03-03T20:45:16.394Z,64.39
2018-03-03T20:47:44.121Z,64.33
2018-03-03T20:50:11.817Z,64.46
2018-03-03T20:52:39.590Z,64.35
2018-03-03T20:55:07.281Z,64.50
2018-03-03T20:57:35.002Z,64.65
2018-03-03T21:00:02.779Z,64.79
2018-03-03T21:02:30.512Z,64.89
2018-03-03T21:04:58.205Z,64.98
2018-03-03T21:07:25.901Z,65.10
2018-03-03T21:09:53.641Z,65.22
2018-03-03T21:15:15.897Z,65.56
2018-03-03T21:17:43.661Z,65.64
2018-03-03T21:20:11.376Z,65.78
2018-03-03T21:22:39.090Z,65.78
2018-03-03T21:25:06.805Z,65.84
2018-03-03T21:27:34.506Z,66.06
2018-03-03T21:30:02.216Z,66.21
2018-03-03T21:32:29.908Z,66.17
2018-03-03T21:34:57.713Z,66.30
2018-03-03T21:37:25.482Z,66.30
2018-03-03T21:39:53.208Z,66.29
2018-03-03T21:42:20.932Z,66.59
2018-03-03T21:44:48.668Z,66.60
2018-03-03T21:47:16.441Z,66.45
2018-03-03T21:49:44.136Z,66.49
2018-03-03T21:52:11.961Z,66.52
2018-03-03T21:54:39.729Z,66.50
2018-03-03T21:57:07.502Z,66.64
2018-03-03T21:59:35.261Z,66.58
2018-03-03T22:02:03.030Z,66.41
2018-03-03T22:04:30.720Z,66.56
2018-03-03T22:06:58.438Z,66.94
2018-03-03T22:09:26.127Z,66.87
2018-03-03T22:11:53.862Z,66.96
2018-03-03T22:14:21.557Z,66.97
2018-03-03T22:16:49.317Z,67.00
2018-03-03T22:19:17.008Z,66.90
2018-03-03T22:21:44.742Z,66.99
2018-03-03T22:24:12.500Z,67.04
2018-03-03T22:26:40.274Z,67.05
2018-03-03T22:29:07.988Z,67.08
2018-03-03T22:31:35.696Z,67.10
2018-03-03T22:34:03.418Z,67.20
2018-03-03T22:36:31.129Z,67.23
2018-03-03T22:38:58.884Z,67.27
2018-03-03T22:41:26.581Z,67.24
2018-03-03T22:43:54.303Z,67.45
2018-03-03T22:46:21.993Z,67.71
2018-03-03T22:48:49.736Z,67.71
2018-03-03T22:51:17.479Z,67.71
2018-03-03T22:53:45.272Z,67.86
2018-03-03T22:56:13.040Z,67.90
2018-03-03T22:58:41.172Z,67.62
2018-03-03T23:01:08.981Z,67.71
2018-03-03T23:03:36.677Z,67.96
2018-03-03T23:06:04.392Z,68.09
2018-03-03T23:08:32.172Z,68.11
2018-03-03T23:10:59.946Z,68.07
2018-03-03T23:13:27.641Z,68.09
2018-03-03T23:15:55.359Z,68.15
2018-03-03T23:18:23.053Z,68.09
2018-03-03T23:20:50.906Z,68.10
2018-03-03T23:23:18.596Z,68.18
2018-03-03T23:25:46.328Z,68.35
2018-03-03T23:28:14.102Z,68.39
2018-03-03T23:30:41.795Z,68.37
2018-03-03T23:33:09.516Z,68.64
2018-03-03T23:35:37.216Z,68.87
2018-03-03T23:38:04.953Z,68.90
2018-03-03T23:40:32.689Z,69.00
2018-03-03T23:43:00.480Z,69.04
2018-03-03T23:45:28.244Z,69.04
2018-03-03T23:47:56.013Z,69.18
2018-03-03T23:50:23.704Z,69.30
2018-03-03T23:52:51.397Z,69.41
2018-03-03T23:55:19.209Z,69.44
2018-03-03T23:57:46.901Z,69.50
